Time;durP1;ratioP1;P1;durP2;ratioP2;P2;SDS_P1;SDS_P2;PMS_P1;PMS_P2;Temp;Humidity;BMP_temperature;BMP_pressure;BME280_temperature;BME280_humidity;BME280_pressure;Samples;Min_cycle;Max_cycle;Signal;HPM_P1;HPM_P2
2021/10/14 00:02:04;;;;;;;;;;;;;;;5.86;97.90;99748.66;4993170;28;104088;-58
2021/10/14 00:04:32;;;;;;;;;;;;;;;5.68;95.19;99744.03;4966085;28;103233;-59
2021/10/14 00:07:00;;;;;;;;;;;;;;;5.67;95.97;99747.59;4991252;28;102736;-69
2021/10/14 00:09:27;;;;;;;;;;;;;;;5.61;95.51;99742.56;4992616;28;102674;-69
2021/10/14 00:11:56;;;;;;;;;;;;;;;5.41;94.93;99747.66;4970076;28;103214;-68
2021/10/14 00:14:24;;;;;;;;;;;;;;;5.45;96.44;99741.38;4987768;28;103272;-68
2021/10/14 00:16:52;;;;;;;;;;;;;;;5.41;95.45;99745.03;4982391;28;102680;-68
2021/10/14 00:19:20;;;;;;;;;;;;;;;5.42;95.75;99736.28;4985274;28;103899;-69
2021/10/14 00:21:47;;;;;;;;;;;;;;;5.44;95.75;99735.31;4992014;28;103958;-58
2021/10/14 00:24:15;;;;;;;;;;;;;;;5.41;95.18;99734.56;4989923;28;103201;-59
2021/10/14 00:26:43;;;;;;;;;;;;;;;5.28;95.30;99742.84;4972699;28;102610;-59
2021/10/14 00:29:12;;;;;;;;;;;;;;;5.18;96.21;99745.81;4991125;28;104065;-69
2021/10/14 00:31:40;;;;;;;;;;;;;;;5.16;96.44;99745.03;4986829;28;103193;-59
2021/10/14 00:34:08;;;;;;;;;;;;;;;5.15;97.25;99754.66;4966594;28;103248;-59
2021/10/14 00:36:35;;;;;;;;;;;;;;;5.24;97.07;99751.72;4989710;28;102704;-69
2021/10/14 00:39:03;;;;;;;;;;;;;;;5.09;97.79;99752.22;4980270;28;103647;-70
2021/10/14 00:41:31;;;;;;;;;;;;;;;5.18;97.99;99749.31;4983808;28;103965;-69
2021/10/14 00:43:59;;;;;;;;;;;;;;;5.21;96.97;99749.22;4985394;28;103207;-69
2021/10/14 00:46:28;;;;;;;;;;;;;;;5.33;97.49;99747.06;4989867;28;103790;-69
2021/10/14 00:48:56;;;;;;;;;;;;;;;5.38;97.13;99755.63;4991172;28;103093;-70
2021/10/14 00:51:24;;;;;;;;;;;;;;;5.41;96.51;99739.78;4990650;28;103803;-69
2021/10/14 00:53:52;;;;;;;;;;;;;;;5.36;95.23;99744.34;4973506;28;104213;-69
2021/10/14 00:56:20;;;;;;;;;;;;;;;5.43;95.60;99743.22;4992033;28;102555;-58
2021/10/14 00:58:48;;;;;;;;;;;;;;;5.30;94.32;99750.66;4995315;28;102655;-59
2021/10/14 01:01:16;;;;;;;;;;;;;;;5.12;93.95;99743.41;4984979;28;103222;-60
2021/10/14 01:03:45;;;;;;;;;;;;;;;4.89;94.96;99741.56;4979022;28;103124;-59
2021/10/14 01:06:13;;;;;;;;;;;;;;;5.08;96.19;99734.78;4983953;28;102901;-59
2021/10/14 01:08:41;;;;;;;;;;;;;;;5.14;95.75;99745.06;4989106;28;102668;-59
2021/10/14 01:11:10;;;;;;;;;;;;;;;5.12;95.24;99746.91;4994453;28;103162;-59
2021/10/14 01:13:38;;;;;;;;;;;;;;;4.88;95.56;99754.72;4997244;28;103148;-59
2021/10/14 01:16:06;;;;;;;;;;;;;;;4.84;97.09;99756.56;5001876;28;102624;-58
2021/10/14 01:18:33;;;;;;;;;;;;;;;4.87;98.05;99758.22;4987313;28;102907;-58
2021/10/14 01:21:03;;;;;;;;;;;;;;;5.02;97.85;99758.59;4994405;28;103224;-58
2021/10/14 01:23:30;;;;;;;;;;;;;;;5.15;97.51;99749.41;5000622;28;103233;-58
2021/10/14 01:25:58;;;;;;;;;;;;;;;5.20;96.33;99742.25;4996762;28;102549;-59
2021/10/14 01:28:26;;;;;;;;;;;;;;;5.15;95.11;99744.16;4990334;28;102869;-58
2021/10/14 01:30:54;;;;;;;;;;;;;;;5.05;94.10;99745.38;4992654;28;103189;-58
2021/10/14 01:33:30;;;;;;;;;;;;;;;5.10;95.14;99734.75;4971807;28;103493;-68
2021/10/14 01:35:57;;;;;;;;;;;;;;;5.17;95.81;99718.75;4977659;28;102753;-69
2021/10/14 01:38:26;;;;;;;;;;;;;;;5.23;96.19;99718.56;4989304;28;102593;-69
2021/10/14 01:40:54;;;;;;;;;;;;;;;5.28;95.80;99727.13;4990088;28;103262;-69
2021/10/14 01:43:22;;;;;;;;;;;;;;;5.28;96.21;99719.25;4985306;28;103161;-69
2021/10/14 01:45:50;;;;;;;;;;;;;;;5.31;95.85;99722.66;4988224;28;102943;-69
2021/10/14 01:48:18;;;;;;;;;;;;;;;5.11;95.85;99723.34;4990166;28;102729;-70
2021/10/14 01:50:45;;;;;;;;;;;;;;;5.11;97.05;99718.97;4990572;28;103314;-69
2021/10/14 01:53:13;;;;;;;;;;;;;;;5.12;96.67;99720.69;4985233;28;103201;-71
2021/10/14 01:55:43;;;;;;;;;;;;;;;5.13;96.91;99718.94;4993235;28;102564;-69
2021/10/14 01:58:12;;;;;;;;;;;;;;;4.83;96.69;99723.41;4987522;28;102830;-69
2021/10/14 02:00:40;;;;;;;;;;;;;;;4.95;98.47;99712.56;4982057;28;104027;-69
2021/10/14 02:03:08;;;;;;;;;;;;;;;4.71;96.75;99721.22;4986277;28;103158;-59
2021/10/14 02:05:35;;;;;;;;;;;;;;;4.74;98.50;99723.75;4973209;28;103016;-58
2021/10/14 02:08:03;;;;;;;;;;;;;;;4.79;98.28;99713.13;4973312;28;103685;-58
2021/10/14 02:10:31;;;;;;;;;;;;;;;4.91;98.54;99708.31;4976113;28;103992;-59
2021/10/14 02:13:01;;;;;;;;;;;;;;;4.97;97.76;99715.13;4976968;28;103165;-58
2021/10/14 02:15:28;;;;;;;;;;;;;;;5.05;97.83;99711.31;4958806;28;102602;-58
2021/10/14 02:17:56;;;;;;;;;;;;;;;5.08;96.91;99707.78;4974283;28;102974;-58
2021/10/14 02:20:24;;;;;;;;;;;;;;;5.00;95.46;99710.63;4972078;28;103179;-58
2021/10/14 02:22:52;;;;;;;;;;;;;;;5.01;96.30;99701.88;4975491;28;103206;-58
2021/10/14 02:25:20;;;;;;;;;;;;;;;4.91;95.38;99713.53;4977829;28;102686;-58
2021/10/14 02:27:47;;;;;;;;;;;;;;;4.80;96.72;99713.06;4972856;28;102716;-58
2021/10/14 02:30:16;;;;;;;;;;;;;;;4.85;97.25;99708.53;4976441;28;103217;-58
2021/10/14 02:32:44;;;;;;;;;;;;;;;4.70;97.82;99711.66;4975326;28;103281;-58
2021/10/14 02:35:12;;;;;;;;;;;;;;;4.61;97.11;99719.78;4976754;28;103250;-58
2021/10/14 02:37:40;;;;;;;;;;;;;;;4.46;99.04;99720.31;4975452;28;102753;-58
2021/10/14 02:40:08;;;;;;;;;;;;;;;4.35;99.82;99718.00;4972355;28;104148;-58
2021/10/14 02:42:36;;;;;;;;;;;;;;;4.52;100.00;99722.72;4976301;28;103179;-59
2021/10/14 02:45:04;;;;;;;;;;;;;;;4.69;100.00;99709.94;4972383;28;102568;-58
2021/10/14 02:47:34;;;;;;;;;;;;;;;4.69;99.33;99712.53;4975150;28;102607;-59
2021/10/14 02:50:01;;;;;;;;;;;;;;;4.62;98.59;99716.28;4957363;28;103389;-59
2021/10/14 02:52:29;;;;;;;;;;;;;;;4.61;98.83;99707.56;4972788;28;103264;-58
2021/10/14 02:54:57;;;;;;;;;;;;;;;4.58;98.04;99712.03;4977396;28;104862;-58
2021/10/14 02:57:25;;;;;;;;;;;;;;;4.45;99.74;99721.19;4977763;28;102687;-58
2021/10/14 02:59:52;;;;;;;;;;;;;;;4.42;100.00;99719.53;4973665;28;103231;-58
2021/10/14 03:02:20;;;;;;;;;;;;;;;4.54;100.00;99719.16;4968399;28;103200;-58
2021/10/14 03:04:50;;;;;;;;;;;;;;;4.55;100.00;99718.22;4979297;28;102594;-58
2021/10/14 03:07:17;;;;;;;;;;;;;;;4.64;100.00;99728.41;5000450;28;103500;-59
2021/10/14 03:09:45;;;;;;;;;;;;;;;4.79;100.00;99719.22;4987959;28;103748;-59
2021/10/14 03:12:13;;;;;;;;;;;;;;;4.84;98.81;99722.53;4986793;28;103207;-59
2021/10/14 03:14:41;;;;;;;;;;;;;;;4.81;97.26;99721.75;4991665;28;103080;-59
2021/10/14 03:17:09;;;;;;;;;;;;;;;4.76;96.42;99721.94;4986616;28;103098;-58
2021/10/14 03:19:37;;;;;;;;;;;;;;;4.72;96.08;99722.91;4988681;28;103944;-59
2021/10/14 03:22:06;;;;;;;;;;;;;;;4.71;96.98;99718.63;4994755;28;104531;-59
2021/10/14 03:24:34;;;;;;;;;;;;;;;4.82;97.45;99716.50;4992434;28;103041;-59
2021/10/14 03:27:02;;;;;;;;;;;;;;;4.80;96.92;99713.06;4988157;28;103955;-59
2021/10/14 03:29:29;;;;;;;;;;;;;;;4.84;96.99;99705.97;4984563;28;103248;-59
2021/10/14 03:31:57;;;;;;;;;;;;;;;4.83;97.93;99707.72;4988118;28;103180;-68
2021/10/14 03:34:25;;;;;;;;;;;;;;;4.92;97.79;99710.03;4985451;28;102675;-69
2021/10/14 03:36:53;;;;;;;;;;;;;;;4.86;97.09;99705.00;4991979;28;103927;-69
2021/10/14 03:39:22;;;;;;;;;;;;;;;4.94;97.80;99702.97;4993950;28;103605;-69
2021/10/14 03:41:50;;;;;;;;;;;;;;;4.92;97.22;99704.78;4987494;28;103393;-69
2021/10/14 03:44:18;;;;;;;;;;;;;;;4.76;96.93;99711.47;4990681;28;102853;-69
2021/10/14 03:46:45;;;;;;;;;;;;;;;4.61;98.05;99710.19;4991492;28;103818;-67
2021/10/14 03:49:13;;;;;;;;;;;;;;;4.43;99.94;99710.78;4989194;28;103275;-69
2021/10/14 03:51:41;;;;;;;;;;;;;;;4.57;100.00;99710.34;4975320;28;103024;-71
2021/10/14 03:54:10;;;;;;;;;;;;;;;4.56;100.00;99719.09;4987160;28;103056;-70
2021/10/14 03:56:39;;;;;;;;;;;;;;;4.42;100.00;99729.13;4992708;28;103133;-70
2021/10/14 03:59:07;;;;;;;;;;;;;;;4.55;100.00;99725.22;4992235;28;103379;-71
2021/10/14 04:01:34;;;;;;;;;;;;;;;4.57;100.00;99731.28;4992761;28;103222;-69
2021/10/14 04:04:02;;;;;;;;;;;;;;;4.47;99.19;99732.47;4988385;28;102816;-68
2021/10/14 04:06:30;;;;;;;;;;;;;;;4.49;99.91;99733.28;4985430;28;104016;-69
2021/10/14 04:08:58;;;;;;;;;;;;;;;4.55;99.81;99746.16;4986421;28;103216;-59
2021/10/14 04:11:25;;;;;;;;;;;;;;;4.56;99.61;99747.88;4988413;28;103215;-59
2021/10/14 04:13:55;;;;;;;;;;;;;;;4.54;99.90;99749.69;4967392;28;102725;-59
2021/10/14 04:16:22;;;;;;;;;;;;;;;4.62;100.00;99747.69;4976465;28;102736;-59
2021/10/14 04:18:50;;;;;;;;;;;;;;;4.71;100.00;99742.19;4991914;28;103882;-59
2021/10/14 04:21:18;;;;;;;;;;;;;;;4.81;100.00;99740.97;4990044;28;104004;-60
2021/10/14 04:23:46;;;;;;;;;;;;;;;4.87;99.21;99745.13;4981456;28;102844;-58
2021/10/14 04:26:13;;;;;;;;;;;;;;;4.88;98.69;99749.47;4985445;28;102745;-58
2021/10/14 04:28:41;;;;;;;;;;;;;;;4.89;98.80;99741.56;4988825;28;103203;-59
2021/10/14 04:31:10;;;;;;;;;;;;;;;4.88;98.61;99750.34;4968826;28;103165;-59
2021/10/14 04:33:38;;;;;;;;;;;;;;;4.89;99.65;99744.19;4987767;28;102630;-59
2021/10/14 04:36:06;;;;;;;;;;;;;;;4.96;99.94;99748.31;4987374;28;102649;-59
2021/10/14 04:38:34;;;;;;;;;;;;;;;5.03;99.76;99749.81;4968972;28;104048;-60
2021/10/14 04:41:02;;;;;;;;;;;;;;;5.06;99.65;99752.34;4994852;28;103383;-59
2021/10/14 04:43:29;;;;;;;;;;;;;;;5.14;99.67;99745.06;4991827;28;102668;-65
2021/10/14 04:45:57;;;;;;;;;;;;;;;5.14;99.20;99744.22;4964960;28;103546;-66
2021/10/14 04:48:26;;;;;;;;;;;;;;;5.18;99.41;99744.06;4984686;28;103303;-66
2021/10/14 04:50:54;;;;;;;;;;;;;;;5.16;99.14;99735.41;4985830;28;103183;-59
2021/10/14 04:53:22;;;;;;;;;;;;;;;5.15;99.08;99743.31;4991249;28;103719;-59
2021/10/14 04:55:50;;;;;;;;;;;;;;;5.15;99.52;99744.16;4988405;28;102658;-59
2021/10/14 04:58:17;;;;;;;;;;;;;;;5.14;99.88;99737.22;4989839;28;103237;-59
2021/10/14 05:00:45;;;;;;;;;;;;;;;5.00;100.00;99739.44;4986857;28;103186;-67
2021/10/14 05:03:13;;;;;;;;;;;;;;;4.96;100.00;99744.84;4988151;28;102587;-59
2021/10/14 05:05:43;;;;;;;;;;;;;;;5.16;100.00;99740.66;4988862;28;102726;-59
2021/10/14 05:08:12;;;;;;;;;;;;;;;5.29;100.00;99741.06;4973887;28;103621;-59
2021/10/14 05:10:40;;;;;;;;;;;;;;;5.39;100.00;99736.38;4992947;28;103183;-59
2021/10/14 05:13:08;;;;;;;;;;;;;;;5.36;100.00;99739.94;4989351;28;102673;-59
2021/10/14 05:15:39;;;;;;;;;;;;;;;5.41;100.00;99739.78;4989981;28;102638;-59
2021/10/14 05:18:07;;;;;;;;;;;;;;;5.36;99.55;99736.47;4970441;28;104067;-58
2021/10/14 05:20:35;;;;;;;;;;;;;;;5.21;100.00;99738.72;4985786;28;103374;-58
2021/10/14 05:23:04;;;;;;;;;;;;;;;5.04;100.00;99740.19;4981658;28;102607;-59
2021/10/14 05:25:32;;;;;;;;;;;;;;;5.20;100.00;99742.25;4980948;28;103148;-59
2021/10/14 05:28:01;;;;;;;;;;;;;;;5.23;100.00;99736.91;4986342;28;103311;-59
2021/10/14 05:30:29;;;;;;;;;;;;;;;5.34;100.00;99735.66;4990245;28;103219;-60
2021/10/14 05:32:57;;;;;;;;;;;;;;;5.41;100.00;99739.78;4985106;28;102621;-66
2021/10/14 05:35:35;;;;;;;;;;;;;;;5.49;100.00;99737.75;4970687;28;102862;-60
2021/10/14 05:38:04;;;;;;;;;;;;;;;5.45;100.00;99739.63;4984406;28;103223;-67
2021/10/14 05:40:32;;;;;;;;;;;;;;;5.38;100.00;99739.91;4981444;28;103236;-67
2021/10/14 05:43:01;;;;;;;;;;;;;;;5.40;100.00;99733.69;4993545;28;102718;-68
2021/10/14 05:45:29;;;;;;;;;;;;;;;5.51;100.00;99730.69;4984379;28;103922;-68
2021/10/14 05:47:57;;;;;;;;;;;;;;;5.59;100.00;99726.03;4988107;28;103256;-60
2021/10/14 05:50:24;;;;;;;;;;;;;;;5.64;100.00;99726.72;4990911;28;102992;-60
2021/10/14 05:52:52;;;;;;;;;;;;;;;5.59;99.55;99733.88;4992142;28;102610;-67
2021/10/14 05:55:21;;;;;;;;;;;;;;;5.43;100.00;99723.09;4990383;28;102593;-60
2021/10/14 05:57:49;;;;;;;;;;;;;;;5.48;100.00;99726.41;4990123;28;104504;-60
2021/10/14 06:00:17;;;;;;;;;;;;;;;5.51;100.00;99725.44;4987109;28;103220;-60
2021/10/14 06:02:45;;;;;;;;;;;;;;;5.42;100.00;99720.56;4986963;28;102702;-60
2021/10/14 06:05:13;;;;;;;;;;;;;;;5.22;100.00;99729.94;4991218;28;102843;-60
2021/10/14 06:07:40;;;;;;;;;;;;;;;5.32;100.00;99732.25;4986092;28;103248;-59
2021/10/14 06:10:08;;;;;;;;;;;;;;;5.39;100.00;99734.59;4991143;28;103010;-60
2021/10/14 06:12:37;;;;;;;;;;;;;;;5.50;100.00;99729.00;4981728;28;104110;-60
2021/10/14 06:15:06;;;;;;;;;;;;;;;5.62;100.00;99739.03;4988335;28;102686;-59
2021/10/14 06:17:34;;;;;;;;;;;;;;;5.75;100.00;99740.31;4988539;28;103271;-67
2021/10/14 06:20:02;;;;;;;;;;;;;;;5.73;100.00;99744.72;4988057;28;103298;-59
2021/10/14 06:22:29;;;;;;;;;;;;;;;5.81;100.00;99755.81;4990238;28;102613;-59
2021/10/14 06:24:57;;;;;;;;;;;;;;;5.89;99.68;99748.56;4969163;28;103105;-60
2021/10/14 06:27:25;;;;;;;;;;;;;;;6.02;98.65;99734.06;4985021;28;104355;-67
2021/10/14 06:29:56;;;;;;;;;;;;;;;6.15;98.93;99731.81;4991388;28;104201;-66
2021/10/14 06:32:23;;;;;;;;;;;;;;;6.25;97.75;99738.44;4993819;28;102585;-66
2021/10/14 06:34:51;;;;;;;;;;;;;;;6.31;97.31;99736.44;4988754;28;102780;-66
2021/10/14 06:37:19;;;;;;;;;;;;;;;6.45;97.00;99735.03;4985662;28;104284;-61
2021/10/14 06:39:47;;;;;;;;;;;;;;;6.53;96.26;99736.44;4991832;28;103727;-59
2021/10/14 06:42:15;;;;;;;;;;;;;;;6.53;95.72;99725.09;4988722;28;102660;-59
2021/10/14 06:44:42;;;;;;;;;;;;;;;6.69;96.27;99734.06;4991636;28;103971;-59
2021/10/14 06:47:12;;;;;;;;;;;;;;;6.67;95.27;99725.41;4994046;28;102643;-65
2021/10/14 06:49:39;;;;;;;;;;;;;;;6.82;95.38;99732.66;4981067;28;103209;-67
2021/10/14 06:52:07;;;;;;;;;;;;;;;6.99;94.66;99738.06;4986919;28;102611;-67
2021/10/14 06:54:35;;;;;;;;;;;;;;;7.13;93.94;99730.44;4983291;28;102696;-59
2021/10/14 06:57:04;;;;;;;;;;;;;;;7.23;93.33;99733.56;4993011;28;103220;-66
2021/10/14 06:59:32;;;;;;;;;;;;;;;7.24;93.81;99738.72;4996894;28;103172;-67
2021/10/14 07:02:00;;;;;;;;;;;;;;;7.22;94.36;99745.84;4991675;28;102566;-66
2021/10/14 07:04:30;;;;;;;;;;;;;;;7.25;94.25;99748.34;4996146;28;102733;-67
2021/10/14 07:06:58;;;;;;;;;;;;;;;7.19;93.33;99745.09;4997333;28;103615;-59
2021/10/14 07:09:26;;;;;;;;;;;;;;;7.11;92.42;99748.06;4986060;28;103274;-59
2021/10/14 07:11:56;;;;;;;;;;;;;;;7.25;92.38;99750.97;4993386;28;102614;-59
2021/10/14 07:14:24;;;;;;;;;;;;;;;7.42;92.65;99751.09;4986981;28;102597;-59
2021/10/14 07:16:53;;;;;;;;;;;;;;;7.57;92.42;99745.19;4982206;28;103934;-58
2021/10/14 07:19:21;;;;;;;;;;;;;;;7.56;92.54;99748.75;4987517;28;103253;-59
2021/10/14 07:21:50;;;;;;;;;;;;;;;7.67;91.25;99756.16;4970548;28;102719;-67
2021/10/14 07:24:19;;;;;;;;;;;;;;;7.57;91.87;99760.97;4993574;28;102661;-68
2021/10/14 07:26:47;;;;;;;;;;;;;;;7.71;90.82;99752.47;4992163;28;104163;-67
2021/10/14 07:29:15;;;;;;;;;;;;;;;7.66;90.77;99764.13;4997187;28;103303;-67
2021/10/14 07:31:43;;;;;;;;;;;;;;;7.64;89.45;99763.31;4992981;28;102668;-67
2021/10/14 07:34:10;;;;;;;;;;;;;;;7.76;89.59;99762.78;4975087;28;103953;-67
2021/10/14 07:36:38;;;;;;;;;;;;;;;7.99;89.24;99757.34;4990595;28;104119;-65
2021/10/14 07:39:07;;;;;;;;;;;;;;;8.21;88.72;99758.09;4989694;28;103181;-66
2021/10/14 07:41:35;;;;;;;;;;;;;;;8.10;88.94;99755.09;4994805;28;104013;-58
2021/10/14 07:44:03;;;;;;;;;;;;;;;8.18;89.15;99763.50;4992318;28;104388;-58
2021/10/14 07:46:31;;;;;;;;;;;;;;;8.35;88.54;99762.75;4985371;28;104058;-58
2021/10/14 07:49:04;;;;;;;;;;;;;;;8.42;88.79;99757.09;4989668;28;103144;-59
2021/10/14 07:51:32;;;;;;;;;;;;;;;8.78;86.92;99754.53;4990991;28;102569;-66
2021/10/14 07:54:00;;;;;;;6.95;5.80;;;;;;;8.87;85.67;99753.22;4985352;28;103018;-68
2021/10/14 07:56:29;;;;;;;9.27;5.40;;;;;;;8.91;85.63;99760.03;4991988;28;103260;-59
2021/10/14 07:58:57;;;;;;;6.55;5.40;;;;;;;10.04;82.55;99758.59;4991101;28;103411;-59
2021/10/14 08:01:26;;;;;;;7.28;5.40;;;;;;;10.37;80.38;99759.44;4992753;28;102649;-59
2021/10/14 08:03:54;;;;;;;6.20;5.28;;;;;;;10.39;78.58;99757.56;4987624;28;102688;-59
2021/10/14 08:06:23;;;;;;;8.10;5.07;;;;;;;10.01;80.02;99762.25;4990443;28;104405;-61
2021/10/14 08:08:51;;;;;;;7.88;5.32;;;;;;;10.30;79.52;99766.00;4992314;28;103238;-59
2021/10/14 08:11:19;;;;;;;7.93;5.38;;;;;;;10.18;78.57;99762.22;4991087;28;102681;-64
2021/10/14 08:13:48;;;;;;;6.00;4.80;;;;;;;10.40;77.92;99761.91;4983408;28;102713;-60
2021/10/14 08:16:16;;;;;;;5.77;5.10;;;;;;;10.20;78.30;99756.84;4971865;28;104386;-60
2021/10/14 08:18:45;;;;;;;9.32;5.90;;;;;;;9.81;79.57;99765.09;4991572;28;103239;-59
2021/10/14 08:21:12;;;;;;;;;;;;;;;10.05;80.02;99760.31;4994185;28;102676;-59
2021/10/14 08:23:40;;;;;;;;;;;;;;;9.94;79.52;99755.56;4990945;28;104103;-58
2021/10/14 08:26:09;;;;;;;11.37;6.03;;;;;;;10.29;77.56;99756.34;4994269;28;103236;-59
2021/10/14 08:28:37;;;;;;;5.70;5.00;;;;;;;10.25;80.46;99755.66;4988495;28;103239;-59
2021/10/14 08:31:06;;;;;;;;;;;;;;;10.51;79.88;99756.88;4988067;28;102631;-59
2021/10/14 08:33:34;;;;;;;6.63;5.27;;;;;;;10.47;78.25;99752.69;4990845;28;102740;-58
2021/10/14 08:36:05;;;;;;;9.80;5.20;;;;;;;10.15;79.37;99753.63;4987942;28;103506;-58
2021/10/14 08:38:33;;;;;;;11.80;4.70;;;;;;;10.72;78.72;99758.31;4970771;28;103240;-59
2021/10/14 08:41:01;;;;;;;5.67;5.10;;;;;;;11.25;75.35;99749.97;4985957;28;103030;-58
2021/10/14 08:43:33;;;;;;;7.27;5.53;;;;;;;11.21;76.65;99755.50;4986243;28;102994;-58
2021/10/14 08:46:03;;;;;;;6.70;5.07;;;;;;;12.07;74.86;99743.19;4985607;28;103249;-59
2021/10/14 08:48:32;;;;;;;6.65;5.07;;;;;;;12.25;73.07;99745.66;4988155;28;103256;-58
2021/10/14 08:51:00;;;;;;;4.57;4.10;;;;;;;12.26;72.93;99745.56;4991013;28;103760;-58
2021/10/14 08:53:29;;;;;;;5.17;4.50;;;;;;;12.40;72.97;99742.91;4978121;28;102747;-67
2021/10/14 08:55:57;;;;;;;4.27;3.87;;;;;;;12.55;72.74;99741.06;4969606;28;103283;-58
2021/10/14 08:58:25;;;;;;;7.60;4.30;;;;;;;12.95;72.09;99745.50;4987239;28;103156;-66
2021/10/14 09:01:11;;;;;;;7.43;4.70;;;;;;;12.06;70.28;99745.97;4989176;28;102796;-67
2021/10/14 09:03:45;;;;;;;8.20;5.03;;;;;;;12.54;73.02;99747.34;4977160;28;103981;-59
2021/10/14 09:06:14;;;;;;;4.90;4.33;;;;;;;12.80;72.48;99741.19;4989264;28;103297;-58
2021/10/14 09:08:44;;;;;;;7.47;4.60;;;;;;;12.63;72.40;99741.44;4987047;28;103226;-58
2021/10/14 09:11:14;;;;;;;;;;;;;;;12.50;72.49;99738.72;4993555;28;102632;-67
2021/10/14 09:13:46;;;;;;;;;;;;;;;12.82;72.54;99739.31;4982540;28;103219;-58
2021/10/14 09:16:21;;;;;;;;;;;;;;;12.65;74.14;99731.59;4990859;28;104456;-59
2021/10/14 09:18:51;;;;;;;;;;;;;;;13.11;70.67;99732.94;4984349;28;103231;-59
2021/10/14 09:21:22;;;;;;;;;;;;;;;13.11;71.08;99729.44;4970392;28;102797;-59
2021/10/14 09:23:50;;;;;;;;;;;;;;;12.83;71.51;99725.06;4981579;28;102730;-59
2021/10/14 09:26:28;;;;;;;;;;;;;;;12.98;70.80;99718.75;4993142;28;103262;-68
2021/10/14 09:29:06;;;;;;;;;;;;;;;13.19;70.12;99714.69;4987910;28;103181;-68
2021/10/14 09:31:47;;;;;;;;;;;;;;;13.25;69.21;99710.78;4992692;28;104056;-59
2021/10/14 09:34:33;;;;;;;;;;;;;;;13.14;68.94;99708.88;4989309;28;102685;-59
2021/10/14 09:37:01;;;;;;;;;;;;;;;13.25;69.44;99709.00;4986739;28;103738;-59
2021/10/14 09:39:29;;;;;;;;;;;;;;;13.72;67.60;99704.91;4972816;28;103233;-60
2021/10/14 09:41:58;;;;;;;;;;;;;;;13.90;66.27;99690.31;4992486;28;102694;-67
2021/10/14 09:44:49;;;;;;;;;;;;;;;13.52;67.46;99686.84;4979960;28;103999;-59
2021/10/14 09:47:17;;;;;;;;;;;;;;;13.44;67.68;99699.78;4993898;28;103935;-68
2021/10/14 09:49:46;;;;;;;;;;;;;;;13.90;66.35;99692.97;4990454;28;105176;-59
2021/10/14 09:52:14;;;;;;;;;;;;;;;13.40;65.80;99699.16;4980952;28;103044;-67
2021/10/14 09:54:42;;;;;;;;;;;;;;;13.52;67.36;99690.34;4990765;28;102702;-68
2021/10/14 09:57:09;;;;;;;;;;;;;;;14.10;64.31;99689.78;4970497;28;103982;-59
2021/10/14 09:59:38;;;;;;;;;;;;;;;12.82;65.89;99690.72;4991827;28;103173;-69
2021/10/14 10:02:07;;;;;;;;;;;;;;;12.51;69.18;99690.06;4988270;28;102575;-68
2021/10/14 10:04:36;;;;;;;;;;;;;;;13.48;67.80;99693.31;4989060;28;103904;-69
2021/10/14 10:07:05;;;;;;;;;;;;;;;13.75;66.81;99684.28;4982791;28;102987;-68
2021/10/14 10:09:40;;;;;;;;;;;;;;;13.63;64.68;99692.25;4987671;28;103322;-59
2021/10/14 10:12:09;;;;;;;4.03;3.43;;;;;;;13.95;66.43;99688.19;4991607;28;102688;-68
2021/10/14 10:14:38;;;;;;;6.32;4.57;;;;;;;14.47;62.54;99699.50;4995944;28;103878;-68
2021/10/14 10:17:08;;;;;;;5.50;4.35;;;;;;;14.82;63.38;99693.41;4993654;28;103492;-59
2021/10/14 10:19:41;;;;;;;4.50;3.08;;;;;;;15.51;58.19;99688.13;4995067;28;102877;-59
2021/10/14 10:22:12;;;;;;;4.87;2.67;;;;;;;15.05;58.22;99688.06;4992025;28;102917;-58
2021/10/14 10:24:40;;;;;;;4.07;2.42;;;;;;;14.97;58.09;99684.28;4998580;28;103120;-69
2021/10/14 10:27:09;;;;;;;4.95;2.70;;;;;;;14.96;58.75;99693.25;4985613;28;104489;-66
2021/10/14 10:29:43;;;;;;;4.47;2.80;;;;;;;15.16;57.86;99687.25;5000979;28;103287;-67
2021/10/14 10:32:19;;;;;;;2.60;2.40;;;;;;;16.12;57.18;99677.97;4990168;28;102878;-67
2021/10/14 10:37:43;;;;;;;2.53;2.33;;;;;;;16.21;56.86;99678.09;4988512;28;104021;-67
2021/10/14 10:40:26;;;;;;;3.60;2.78;;;;;;;16.74;54.32;99679.13;4970211;28;103208;-68
2021/10/14 10:42:59;;;;;;;3.57;2.97;;;;;;;16.68;54.66;99670.75;4994722;28;102849;-68
2021/10/14 10:45:30;;;;;;;4.10;2.70;;;;;;;17.24;54.23;99674.91;4994957;28;102912;-69
2021/10/14 10:48:01;;;;;;;4.85;2.85;;;;;;;17.46;53.49;99662.41;4988755;28;104349;-68
2021/10/14 10:50:56;;;;;;;4.90;2.80;;;;;;;16.64;55.75;99669.31;4992893;28;103101;-59
2021/10/14 10:53:39;;;;;;;4.82;3.22;;;;;;;16.21;54.53;99664.78;4935237;28;102937;-69
2021/10/14 10:56:08;;;;;;;5.17;2.87;;;;;;;16.74;55.32;99665.78;4993262;28;103016;-69
2021/10/14 10:58:47;;;;;;;3.90;2.83;;;;;;;17.28;53.32;99664.81;4989779;28;104219;-69
2021/10/14 11:01:17;;;;;;;4.97;3.00;;;;;;;17.08;53.99;99662.97;4972393;28;103481;-72
2021/10/14 11:03:57;;;;;;;5.53;3.05;;;;;;;16.04;58.43;99656.41;4970894;28;102751;-70
2021/10/14 11:06:26;;;;;;;3.08;2.67;;;;;;;16.85;55.96;99656.00;4973881;28;102750;-69
2021/10/14 11:09:01;;;;;;;3.45;2.70;;;;;;;17.08;54.82;99646.94;4991585;28;103263;-69
2021/10/14 11:11:30;;;;;;;3.60;2.88;;;;;;;16.78;53.78;99645.88;4975919;28;103206;-69
2021/10/14 11:13:58;;;;;;;5.30;3.60;;;;;;;16.48;54.89;99643.00;4972669;28;103228;-68
2021/10/14 11:16:27;;;;;;;4.82;3.40;;;;;;;17.42;53.25;99639.59;4993851;28;104065;-71
2021/10/14 11:18:58;;;;;;;6.40;3.30;;;;;;;17.58;52.93;99634.66;4992831;28;104412;-69
2021/10/14 11:21:42;;;;;;;5.90;2.93;;;;;;;16.95;55.00;99635.59;4989209;28;103380;-69
2021/10/14 11:24:11;;;;;;;4.90;2.57;;;;;;;16.99;54.11;99631.69;4988143;28;102969;-68
2021/10/14 11:26:42;;;;;;;4.60;3.00;;;;;;;16.24;55.83;99634.34;4992422;28;103054;-68
2021/10/14 11:29:12;;;;;;;4.57;2.80;;;;;;;17.54;53.94;99628.75;4989487;28;104782;-69
2021/10/14 11:31:42;;;;;;;3.55;2.65;;;;;;;15.77;54.62;99631.97;4989863;28;103188;-69
2021/10/14 11:34:13;;;;;;;3.77;2.47;;;;;;;16.89;54.63;99622.78;4989154;28;103252;-68
2021/10/14 11:36:50;;;;;;;10.00;6.40;;;;;;;16.19;56.65;99620.53;4994546;28;104029;-68
2021/10/14 11:39:21;;;;;;;6.40;4.63;;;;;;;16.31;58.28;99616.88;4989018;28;104139;-60
2021/10/14 11:41:58;;;;;;;3.90;3.35;;;;;;;16.72;57.25;99619.69;4988280;28;103204;-69
2021/10/14 11:44:28;;;;;;;4.25;3.13;;;;;;;15.81;59.15;99620.09;4981685;28;102715;-60
2021/10/14 11:46:57;;;;;;;3.95;2.67;;;;;;;17.00;56.74;99606.69;4986415;28;103908;-60
2021/10/14 11:49:26;;;;;;;5.43;3.17;;;;;;;15.83;57.59;99610.16;4978418;28;103839;-60
2021/10/14 11:51:54;;;;;;;4.38;2.72;;;;;;;16.39;56.96;99606.44;4984376;28;102975;-61
2021/10/14 11:54:24;;;;;;;6.33;4.10;;;;;;;16.58;55.90;99601.31;4986939;28;102911;-59
2021/10/14 11:56:53;;;;;;;4.72;3.80;;;;;;;15.82;58.05;99600.47;4982017;28;104112;-59
2021/10/14 11:59:23;;;;;;;5.32;3.47;;;;;;;16.48;57.90;99595.00;4983828;28;103388;-60
2021/10/14 12:01:55;;;;;;;5.77;2.90;;;;;;;16.59;57.48;99608.31;4967313;28;103451;-59
2021/10/14 12:04:26;;;;;;;7.73;6.23;;;;;;;16.28;56.64;99594.97;4984694;28;103315;-59
2021/10/14 12:06:55;;;;;;;6.75;4.38;;;;;;;16.24;57.96;99589.03;4987575;28;102986;-60
2021/10/14 12:09:42;;;;;;;7.10;3.17;;;;;;;15.49;58.49;99586.19;4989512;28;104204;-60
2021/10/14 12:12:12;;;;;;;4.45;3.30;;;;;;;15.83;58.44;99580.88;4988695;28;103925;-60
2021/10/14 12:14:40;;;;;;;3.55;2.67;;;;;;;16.79;56.31;99582.66;4971197;28;103065;-60
2021/10/14 12:17:11;;;;;;;4.55;2.80;;;;;;;15.21;58.46;99586.63;4990401;28;102753;-60
2021/10/14 12:19:41;;;;;;;2.85;2.08;;;;;;;16.62;56.14;99575.22;4982142;28;103292;-60
2021/10/14 12:22:11;;;;;;;4.00;2.50;;;;;;;16.52;56.51;99575.13;4990838;28;103199;-68
2021/10/14 12:24:56;;;;;;;5.40;2.40;;;;;;;16.67;56.74;99573.03;4988581;28;102800;-60
2021/10/14 12:27:25;;;;;;;3.88;2.47;;;;;;;16.27;57.50;99574.59;4987728;28;103033;-60
2021/10/14 12:29:53;;;;;;;3.63;2.38;;;;;;;15.52;58.46;99572.63;4982373;28;103311;-60
2021/10/14 12:32:22;;;;;;;3.55;2.00;;;;;;;16.07;59.13;99562.88;4989738;28;103295;-60
2021/10/14 12:34:56;;;;;;;4.65;2.30;;;;;;;15.58;60.80;99569.47;4970595;28;104487;-69